sensor_id;sensor_type;location;lat;lon;timestamp;P1;durP1;ratioP1;P2;durP2;ratioP2
23952;SDS011;12163;49.316;6.092;2022-09-09T00:04:31;8.35;;;1.13;;
23952;SDS011;12163;49.316;6.092;2022-09-09T00:09:29;6.28;;;1.27;;
23952;SDS011;12163;49.316;6.092;2022-09-09T00:12:15;3.60;;;1.40;;
23952;SDS011;12163;49.316;6.092;2022-09-09T00:14:55;5.28;;;1.45;;
23952;SDS011;12163;49.316;6.092;2022-09-09T00:20:43;6.78;;;1.58;;
23952;SDS011;12163;49.316;6.092;2022-09-09T00:28:47;7.47;;;1.40;;
23952;SDS011;12163;49.316;6.092;2022-09-09T00:31:20;3.83;;;1.13;;
23952;SDS011;12163;49.316;6.092;2022-09-09T00:33:51;9.85;;;1.20;;
23952;SDS011;12163;49.316;6.092;2022-09-09T00:36:21;9.32;;;1.83;;
23952;SDS011;12163;49.316;6.092;2022-09-09T00:38:52;5.18;;;1.30;;
23952;SDS011;12163;49.316;6.092;2022-09-09T00:49:38;5.25;;;1.52;;
23952;SDS011;12163;49.316;6.092;2022-09-09T00:54:51;7.28;;;1.55;;
23952;SDS011;12163;49.316;6.092;2022-09-09T00:57:26;6.22;;;1.33;;
23952;SDS011;12163;49.316;6.092;2022-09-09T01:08:30;7.63;;;1.55;;
23952;SDS011;12163;49.316;6.092;2022-09-09T01:11:01;4.95;;;1.25;;
23952;SDS011;12163;49.316;6.092;2022-09-09T01:13:29;6.68;;;1.30;;
23952;SDS011;12163;49.316;6.092;2022-09-09T01:16:00;7.18;;;1.17;;
23952;SDS011;12163;49.316;6.092;2022-09-09T01:18:32;7.00;;;1.50;;
23952;SDS011;12163;49.316;6.092;2022-09-09T01:24:21;4.75;;;1.10;;
23952;SDS011;12163;49.316;6.092;2022-09-09T01:26:50;8.45;;;1.30;;
23952;SDS011;12163;49.316;6.092;2022-09-09T01:31:57;5.22;;;1.20;;
23952;SDS011;12163;49.316;6.092;2022-09-09T01:34:35;8.73;;;1.40;;
23952;SDS011;12163;49.316;6.092;2022-09-09T01:39:31;5.70;;;1.35;;
23952;SDS011;12163;49.316;6.092;2022-09-09T01:42:03;7.53;;;1.42;;
23952;SDS011;12163;49.316;6.092;2022-09-09T01:44:32;9.38;;;1.20;;
23952;SDS011;12163;49.316;6.092;2022-09-09T01:47:02;6.30;;;1.17;;
23952;SDS011;12163;49.316;6.092;2022-09-09T01:49:29;8.00;;;1.70;;
23952;SDS011;12163;49.316;6.092;2022-09-09T01:51:56;7.85;;;1.50;;
23952;SDS011;12163;49.316;6.092;2022-09-09T01:54:24;9.23;;;1.35;;
23952;SDS011;12163;49.316;6.092;2022-09-09T02:04:50;10.77;;;1.50;;
23952;SDS011;12163;49.316;6.092;2022-09-09T02:10:09;7.15;;;1.20;;
23952;SDS011;12163;49.316;6.092;2022-09-09T02:12:39;12.02;;;1.63;;
23952;SDS011;12163;49.316;6.092;2022-09-09T02:15:11;6.07;;;1.40;;
23952;SDS011;12163;49.316;6.092;2022-09-09T02:17:45;2.90;;;0.88;;
23952;SDS011;12163;49.316;6.092;2022-09-09T02:20:13;9.00;;;1.40;;
23952;SDS011;12163;49.316;6.092;2022-09-09T02:22:41;11.93;;;1.50;;
23952;SDS011;12163;49.316;6.092;2022-09-09T02:25:12;5.78;;;1.27;;
23952;SDS011;12163;49.316;6.092;2022-09-09T02:27:41;12.15;;;1.30;;
23952;SDS011;12163;49.316;6.092;2022-09-09T02:30:11;8.00;;;1.30;;
23952;SDS011;12163;49.316;6.092;2022-09-09T02:32:39;7.78;;;1.27;;
23952;SDS011;12163;49.316;6.092;2022-09-09T02:35:09;7.28;;;1.13;;
23952;SDS011;12163;49.316;6.092;2022-09-09T02:37:41;5.97;;;1.50;;
23952;SDS011;12163;49.316;6.092;2022-09-09T02:40:12;8.85;;;1.40;;
23952;SDS011;12163;49.316;6.092;2022-09-09T02:42:42;8.18;;;1.40;;
23952;SDS011;12163;49.316;6.092;2022-09-09T02:45:10;7.97;;;1.38;;
23952;SDS011;12163;49.316;6.092;2022-09-09T02:51:08;7.22;;;1.35;;
23952;SDS011;12163;49.316;6.092;2022-09-09T02:56:26;6.32;;;1.50;;
23952;SDS011;12163;49.316;6.092;2022-09-09T02:58:56;13.57;;;1.50;;
23952;SDS011;12163;49.316;6.092;2022-09-09T03:01:23;6.40;;;1.17;;
23952;SDS011;12163;49.316;6.092;2022-09-09T03:03:50;6.43;;;1.38;;
23952;SDS011;12163;49.316;6.092;2022-09-09T03:06:16;10.75;;;1.75;;
23952;SDS011;12163;49.316;6.092;2022-09-09T03:08:43;8.85;;;1.77;;
23952;SDS011;12163;49.316;6.092;2022-09-09T03:11:15;7.95;;;1.52;;
23952;SDS011;12163;49.316;6.092;2022-09-09T03:13:42;9.65;;;1.88;;
23952;SDS011;12163;49.316;6.092;2022-09-09T03:16:08;9.25;;;1.23;;
23952;SDS011;12163;49.316;6.092;2022-09-09T03:18:35;10.70;;;1.35;;
23952;SDS011;12163;49.316;6.092;2022-09-09T03:21:02;6.13;;;1.15;;
23952;SDS011;12163;49.316;6.092;2022-09-09T03:23:28;8.02;;;1.52;;
23952;SDS011;12163;49.316;6.092;2022-09-09T03:25:55;8.55;;;1.60;;
23952;SDS011;12163;49.316;6.092;2022-09-09T03:28:23;9.50;;;1.73;;
23952;SDS011;12163;49.316;6.092;2022-09-09T03:30:51;11.05;;;1.60;;
23952;SDS011;12163;49.316;6.092;2022-09-09T03:33:18;10.88;;;1.60;;
23952;SDS011;12163;49.316;6.092;2022-09-09T03:35:45;10.75;;;1.70;;
23952;SDS011;12163;49.316;6.092;2022-09-09T03:38:15;8.05;;;1.27;;
23952;SDS011;12163;49.316;6.092;2022-09-09T03:40:52;8.35;;;1.55;;
23952;SDS011;12163;49.316;6.092;2022-09-09T03:43:21;6.07;;;1.50;;
23952;SDS011;12163;49.316;6.092;2022-09-09T03:45:49;11.50;;;1.58;;
23952;SDS011;12163;49.316;6.092;2022-09-09T03:48:16;10.85;;;1.50;;
23952;SDS011;12163;49.316;6.092;2022-09-09T03:50:44;11.15;;;1.42;;
23952;SDS011;12163;49.316;6.092;2022-09-09T03:53:15;11.57;;;1.80;;
23952;SDS011;12163;49.316;6.092;2022-09-09T03:55:44;9.02;;;1.60;;
23952;SDS011;12163;49.316;6.092;2022-09-09T04:01:52;8.77;;;1.52;;
23952;SDS011;12163;49.316;6.092;2022-09-09T04:04:20;9.25;;;1.70;;
23952;SDS011;12163;49.316;6.092;2022-09-09T04:06:46;14.43;;;1.67;;
23952;SDS011;12163;49.316;6.092;2022-09-09T04:09:14;11.10;;;1.52;;
23952;SDS011;12163;49.316;6.092;2022-09-09T04:11:41;10.05;;;1.98;;
23952;SDS011;12163;49.316;6.092;2022-09-09T04:14:07;11.82;;;2.08;;
23952;SDS011;12163;49.316;6.092;2022-09-09T04:16:35;12.13;;;1.60;;
23952;SDS011;12163;49.316;6.092;2022-09-09T04:19:03;7.85;;;1.50;;
23952;SDS011;12163;49.316;6.092;2022-09-09T04:21:30;11.20;;;1.67;;
23952;SDS011;12163;49.316;6.092;2022-09-09T04:23:57;11.05;;;1.60;;
23952;SDS011;12163;49.316;6.092;2022-09-09T04:26:24;9.18;;;1.95;;
23952;SDS011;12163;49.316;6.092;2022-09-09T04:28:50;11.18;;;1.98;;
23952;SDS011;12163;49.316;6.092;2022-09-09T04:31:18;9.55;;;1.55;;
23952;SDS011;12163;49.316;6.092;2022-09-09T04:33:49;10.15;;;2.10;;
23952;SDS011;12163;49.316;6.092;2022-09-09T04:36:16;13.05;;;2.20;;
23952;SDS011;12163;49.316;6.092;2022-09-09T04:38:45;12.45;;;1.83;;
23952;SDS011;12163;49.316;6.092;2022-09-09T04:41:12;6.65;;;1.42;;
23952;SDS011;12163;49.316;6.092;2022-09-09T04:43:39;10.65;;;1.63;;
23952;SDS011;12163;49.316;6.092;2022-09-09T04:46:05;10.80;;;1.70;;
23952;SDS011;12163;49.316;6.092;2022-09-09T04:48:33;8.88;;;2.00;;
23952;SDS011;12163;49.316;6.092;2022-09-09T04:51:00;9.50;;;1.98;;
23952;SDS011;12163;49.316;6.092;2022-09-09T04:53:30;9.88;;;1.95;;
23952;SDS011;12163;49.316;6.092;2022-09-09T04:56:04;5.95;;;1.42;;
23952;SDS011;12163;49.316;6.092;2022-09-09T04:58:36;6.47;;;1.40;;
23952;SDS011;12163;49.316;6.092;2022-09-09T05:01:07;9.88;;;1.23;;
23952;SDS011;12163;49.316;6.092;2022-09-09T05:03:35;7.68;;;1.58;;
23952;SDS011;12163;49.316;6.092;2022-09-09T05:06:03;6.88;;;1.55;;
23952;SDS011;12163;49.316;6.092;2022-09-09T05:08:31;7.07;;;1.30;;
23952;SDS011;12163;49.316;6.092;2022-09-09T05:10:58;12.38;;;1.95;;
23952;SDS011;12163;49.316;6.092;2022-09-09T05:13:26;7.00;;;1.40;;
23952;SDS011;12163;49.316;6.092;2022-09-09T05:15:54;9.05;;;1.55;;
23952;SDS011;12163;49.316;6.092;2022-09-09T05:18:21;8.68;;;1.92;;
23952;SDS011;12163;49.316;6.092;2022-09-09T05:20:49;15.82;;;2.03;;
23952;SDS011;12163;49.316;6.092;2022-09-09T05:23:17;8.60;;;1.70;;
23952;SDS011;12163;49.316;6.092;2022-09-09T05:25:43;10.80;;;1.80;;
23952;SDS011;12163;49.316;6.092;2022-09-09T05:28:11;11.73;;;1.75;;
23952;SDS011;12163;49.316;6.092;2022-09-09T05:30:38;6.30;;;1.48;;
23952;SDS011;12163;49.316;6.092;2022-09-09T05:33:04;10.82;;;2.00;;
23952;SDS011;12163;49.316;6.092;2022-09-09T05:35:32;9.07;;;2.33;;
23952;SDS011;12163;49.316;6.092;2022-09-09T05:37:59;7.53;;;1.40;;
23952;SDS011;12163;49.316;6.092;2022-09-09T05:40:26;15.15;;;2.08;;
23952;SDS011;12163;49.316;6.092;2022-09-09T05:42:53;5.80;;;1.63;;
23952;SDS011;12163;49.316;6.092;2022-09-09T05:45:19;17.38;;;1.70;;
23952;SDS011;12163;49.316;6.092;2022-09-09T05:47:50;19.27;;;2.00;;
23952;SDS011;12163;49.316;6.092;2022-09-09T05:50:19;12.57;;;1.90;;
23952;SDS011;12163;49.316;6.092;2022-09-09T05:52:45;9.68;;;2.25;;
23952;SDS011;12163;49.316;6.092;2022-09-09T05:55:12;9.90;;;1.83;;
23952;SDS011;12163;49.316;6.092;2022-09-09T05:57:38;6.85;;;1.60;;
23952;SDS011;12163;49.316;6.092;2022-09-09T06:00:05;11.68;;;1.95;;
23952;SDS011;12163;49.316;6.092;2022-09-09T06:02:32;11.55;;;1.77;;
23952;SDS011;12163;49.316;6.092;2022-09-09T06:04:59;10.75;;;1.85;;
23952;SDS011;12163;49.316;6.092;2022-09-09T06:07:26;9.10;;;1.77;;
23952;SDS011;12163;49.316;6.092;2022-09-09T06:09:52;11.25;;;1.80;;
23952;SDS011;12163;49.316;6.092;2022-09-09T06:12:19;14.27;;;1.83;;
23952;SDS011;12163;49.316;6.092;2022-09-09T06:14:47;8.43;;;1.67;;
23952;SDS011;12163;49.316;6.092;2022-09-09T06:17:13;7.20;;;1.73;;
23952;SDS011;12163;49.316;6.092;2022-09-09T06:19:40;16.10;;;2.17;;
23952;SDS011;12163;49.316;6.092;2022-09-09T06:22:06;9.88;;;2.10;;
23952;SDS011;12163;49.316;6.092;2022-09-09T06:24:33;7.95;;;1.50;;
23952;SDS011;12163;49.316;6.092;2022-09-09T06:26:59;11.80;;;1.95;;
23952;SDS011;12163;49.316;6.092;2022-09-09T06:29:26;14.55;;;1.98;;
23952;SDS011;12163;49.316;6.092;2022-09-09T06:31:52;11.45;;;1.63;;
23952;SDS011;12163;49.316;6.092;2022-09-09T06:34:19;13.48;;;2.20;;
23952;SDS011;12163;49.316;6.092;2022-09-09T06:36:46;9.68;;;1.63;;
23952;SDS011;12163;49.316;6.092;2022-09-09T06:39:13;13.90;;;2.20;;
23952;SDS011;12163;49.316;6.092;2022-09-09T06:41:41;9.32;;;1.77;;
23952;SDS011;12163;49.316;6.092;2022-09-09T06:44:09;12.73;;;1.92;;
23952;SDS011;12163;49.316;6.092;2022-09-09T06:46:37;12.75;;;2.05;;
23952;SDS011;12163;49.316;6.092;2022-09-09T06:49:06;11.38;;;1.83;;
23952;SDS011;12163;49.316;6.092;2022-09-09T06:51:35;12.45;;;2.60;;
23952;SDS011;12163;49.316;6.092;2022-09-09T06:54:09;14.00;;;2.17;;
23952;SDS011;12163;49.316;6.092;2022-09-09T06:56:38;8.93;;;1.98;;
23952;SDS011;12163;49.316;6.092;2022-09-09T06:59:09;14.38;;;2.75;;
23952;SDS011;12163;49.316;6.092;2022-09-09T07:01:37;13.13;;;2.17;;
23952;SDS011;12163;49.316;6.092;2022-09-09T07:04:10;7.80;;;1.70;;
23952;SDS011;12163;49.316;6.092;2022-09-09T07:06:38;12.85;;;1.98;;
23952;SDS011;12163;49.316;6.092;2022-09-09T07:09:13;9.75;;;2.17;;
23952;SDS011;12163;49.316;6.092;2022-09-09T07:11:42;11.25;;;2.10;;
23952;SDS011;12163;49.316;6.092;2022-09-09T07:14:10;7.90;;;1.80;;
23952;SDS011;12163;49.316;6.092;2022-09-09T07:16:41;13.73;;;2.42;;
23952;SDS011;12163;49.316;6.092;2022-09-09T07:19:08;8.60;;;1.73;;
23952;SDS011;12163;49.316;6.092;2022-09-09T07:21:36;11.40;;;2.13;;
23952;SDS011;12163;49.316;6.092;2022-09-09T07:24:03;9.30;;;1.90;;
23952;SDS011;12163;49.316;6.092;2022-09-09T07:26:33;10.20;;;2.20;;
23952;SDS011;12163;49.316;6.092;2022-09-09T07:29:00;11.55;;;2.30;;
23952;SDS011;12163;49.316;6.092;2022-09-09T07:31:28;10.50;;;2.20;;
23952;SDS011;12163;49.316;6.092;2022-09-09T07:33:59;8.70;;;1.77;;
23952;SDS011;12163;49.316;6.092;2022-09-09T07:36:27;15.18;;;2.05;;
23952;SDS011;12163;49.316;6.092;2022-09-09T07:39:17;12.65;;;2.65;;
23952;SDS011;12163;49.316;6.092;2022-09-09T07:41:45;12.63;;;2.28;;
23952;SDS011;12163;49.316;6.092;2022-09-09T07:44:14;14.60;;;2.40;;
23952;SDS011;12163;49.316;6.092;2022-09-09T07:46:43;8.20;;;1.70;;
23952;SDS011;12163;49.316;6.092;2022-09-09T07:49:11;9.98;;;2.13;;
23952;SDS011;12163;49.316;6.092;2022-09-09T07:51:40;10.63;;;2.45;;
23952;SDS011;12163;49.316;6.092;2022-09-09T07:54:09;11.48;;;2.28;;
23952;SDS011;12163;49.316;6.092;2022-09-09T07:56:38;12.45;;;2.05;;
23952;SDS011;12163;49.316;6.092;2022-09-09T07:59:06;11.25;;;2.55;;
23952;SDS011;12163;49.316;6.092;2022-09-09T08:04:04;14.15;;;2.70;;
23952;SDS011;12163;49.316;6.092;2022-09-09T08:06:37;9.43;;;2.22;;
23952;SDS011;12163;49.316;6.092;2022-09-09T08:09:06;8.77;;;2.03;;
23952;SDS011;12163;49.316;6.092;2022-09-09T08:11:34;14.95;;;2.50;;
23952;SDS011;12163;49.316;6.092;2022-09-09T08:14:05;10.18;;;2.08;;
23952;SDS011;12163;49.316;6.092;2022-09-09T08:16:37;7.72;;;1.73;;
23952;SDS011;12163;49.316;6.092;2022-09-09T08:19:05;11.27;;;1.80;;
23952;SDS011;12163;49.316;6.092;2022-09-09T08:21:34;10.07;;;2.03;;
23952;SDS011;12163;49.316;6.092;2022-09-09T08:24:02;15.57;;;2.95;;
23952;SDS011;12163;49.316;6.092;2022-09-09T08:26:32;8.43;;;1.70;;
23952;SDS011;12163;49.316;6.092;2022-09-09T08:29:00;11.10;;;2.63;;
23952;SDS011;12163;49.316;6.092;2022-09-09T08:31:30;13.70;;;2.42;;
23952;SDS011;12163;49.316;6.092;2022-09-09T08:34:01;13.55;;;2.75;;
23952;SDS011;12163;49.316;6.092;2022-09-09T08:36:33;16.80;;;2.80;;
23952;SDS011;12163;49.316;6.092;2022-09-09T08:39:01;13.80;;;2.55;;
23952;SDS011;12163;49.316;6.092;2022-09-09T08:57:48;11.25;;;2.17;;
23952;SDS011;12163;49.316;6.092;2022-09-09T09:00:18;8.43;;;2.13;;
23952;SDS011;12163;49.316;6.092;2022-09-09T09:05:57;9.35;;;2.10;;
23952;SDS011;12163;49.316;6.092;2022-09-09T09:11:04;9.18;;;2.25;;
23952;SDS011;12163;49.316;6.092;2022-09-09T09:19:04;13.15;;;2.10;;
23952;SDS011;12163;49.316;6.092;2022-09-09T09:21:44;12.52;;;2.22;;
23952;SDS011;12163;49.316;6.092;2022-09-09T09:24:22;11.50;;;2.35;;
23952;SDS011;12163;49.316;6.092;2022-09-09T09:26:53;8.88;;;1.45;;
23952;SDS011;12163;49.316;6.092;2022-09-09T09:29:20;8.35;;;2.15;;
23952;SDS011;12163;49.316;6.092;2022-09-09T09:31:52;10.70;;;2.10;;
23952;SDS011;12163;49.316;6.092;2022-09-09T09:34:21;6.88;;;1.73;;
23952;SDS011;12163;49.316;6.092;2022-09-09T09:36:54;11.55;;;1.80;;
23952;SDS011;12163;49.316;6.092;2022-09-09T09:42:15;6.63;;;1.90;;
23952;SDS011;12163;49.316;6.092;2022-09-09T09:44:48;9.95;;;1.80;;
23952;SDS011;12163;49.316;6.092;2022-09-09T09:47:15;14.45;;;2.20;;
23952;SDS011;12163;49.316;6.092;2022-09-09T09:49:55;7.50;;;2.60;;
23952;SDS011;12163;49.316;6.092;2022-09-09T09:54:52;7.45;;;1.58;;
23952;SDS011;12163;49.316;6.092;2022-09-09T09:57:22;7.55;;;1.58;;
23952;SDS011;12163;49.316;6.092;2022-09-09T10:02:44;6.13;;;1.65;;
23952;SDS011;12163;49.316;6.092;2022-09-09T10:05:13;6.22;;;1.30;;
23952;SDS011;12163;49.316;6.092;2022-09-09T10:07:40;6.00;;;1.33;;
23952;SDS011;12163;49.316;6.092;2022-09-09T10:10:11;5.60;;;1.50;;
23952;SDS011;12163;49.316;6.092;2022-09-09T10:12:59;8.30;;;1.92;;
23952;SDS011;12163;49.316;6.092;2022-09-09T10:36:59;10.20;;;1.58;;
23952;SDS011;12163;49.316;6.092;2022-09-09T10:39:36;6.80;;;1.98;;
23952;SDS011;12163;49.316;6.092;2022-09-09T10:47:38;6.00;;;1.60;;
23952;SDS011;12163;49.316;6.092;2022-09-09T10:50:12;10.15;;;2.05;;
23952;SDS011;12163;49.316;6.092;2022-09-09T10:55:25;7.50;;;1.55;;
23952;SDS011;12163;49.316;6.092;2022-09-09T10:57:55;7.78;;;1.90;;
23952;SDS011;12163;49.316;6.092;2022-09-09T11:00:25;9.25;;;1.90;;
23952;SDS011;12163;49.316;6.092;2022-09-09T11:03:02;10.20;;;2.05;;
23952;SDS011;12163;49.316;6.092;2022-09-09T11:05:31;8.65;;;1.88;;
23952;SDS011;12163;49.316;6.092;2022-09-09T11:08:09;7.95;;;1.60;;
23952;SDS011;12163;49.316;6.092;2022-09-09T11:13:11;6.10;;;1.55;;
23952;SDS011;12163;49.316;6.092;2022-09-09T11:15:49;8.77;;;1.70;;
23952;SDS011;12163;49.316;6.092;2022-09-09T11:18:19;10.23;;;2.03;;
23952;SDS011;12163;49.316;6.092;2022-09-09T11:20:48;9.80;;;1.80;;
23952;SDS011;12163;49.316;6.092;2022-09-09T11:26:12;7.05;;;1.67;;
23952;SDS011;12163;49.316;6.092;2022-09-09T11:28:55;7.78;;;1.63;;
23952;SDS011;12163;49.316;6.092;2022-09-09T11:31:58;9.20;;;1.65;;
23952;SDS011;12163;49.316;6.092;2022-09-09T11:34:54;9.60;;;1.95;;
23952;SDS011;12163;49.316;6.092;2022-09-09T11:42:40;6.32;;;1.50;;
23952;SDS011;12163;49.316;6.092;2022-09-09T11:45:09;6.55;;;1.75;;
23952;SDS011;12163;49.316;6.092;2022-09-09T11:47:37;9.20;;;1.50;;
23952;SDS011;12163;49.316;6.092;2022-09-09T11:50:08;5.63;;;1.50;;
23952;SDS011;12163;49.316;6.092;2022-09-09T11:52:41;6.03;;;1.20;;
23952;SDS011;12163;49.316;6.092;2022-09-09T11:55:24;6.45;;;1.33;;
23952;SDS011;12163;49.316;6.092;2022-09-09T11:57:57;6.10;;;1.10;;
23952;SDS011;12163;49.316;6.092;2022-09-09T12:00:38;3.58;;;0.98;;
23952;SDS011;12163;49.316;6.092;2022-09-09T12:11:50;6.07;;;1.27;;
23952;SDS011;12163;49.316;6.092;2022-09-09T12:14:22;9.77;;;2.08;;
23952;SDS011;12163;49.316;6.092;2022-09-09T12:17:20;3.17;;;0.93;;
23952;SDS011;12163;49.316;6.092;2022-09-09T12:19:59;4.72;;;1.30;;
23952;SDS011;12163;49.316;6.092;2022-09-09T12:25:18;8.65;;;1.52;;
23952;SDS011;12163;49.316;6.092;2022-09-09T12:28:04;6.65;;;1.65;;
23952;SDS011;12163;49.316;6.092;2022-09-09T12:30:33;4.10;;;1.13;;
23952;SDS011;12163;49.316;6.092;2022-09-09T12:33:11;5.07;;;1.38;;
23952;SDS011;12163;49.316;6.092;2022-09-09T12:35:39;5.03;;;1.10;;
23952;SDS011;12163;49.316;6.092;2022-09-09T12:38:13;6.07;;;1.45;;
23952;SDS011;12163;49.316;6.092;2022-09-09T12:40:53;7.45;;;1.60;;
23952;SDS011;12163;49.316;6.092;2022-09-09T12:43:22;6.50;;;1.17;;
23952;SDS011;12163;49.316;6.092;2022-09-09T12:45:51;3.28;;;1.15;;
23952;SDS011;12163;49.316;6.092;2022-09-09T12:48:31;4.85;;;1.48;;
23952;SDS011;12163;49.316;6.092;2022-09-09T12:51:03;6.55;;;1.00;;
23952;SDS011;12163;49.316;6.092;2022-09-09T12:53:34;4.32;;;0.88;;
23952;SDS011;12163;49.316;6.092;2022-09-09T12:56:06;2.85;;;1.00;;
23952;SDS011;12163;49.316;6.092;2022-09-09T12:58:36;6.20;;;1.00;;
23952;SDS011;12163;49.316;6.092;2022-09-09T13:01:05;4.10;;;1.02;;
23952;SDS011;12163;49.316;6.092;2022-09-09T13:03:32;5.55;;;1.10;;
23952;SDS011;12163;49.316;6.092;2022-09-09T13:06:12;5.85;;;1.10;;
23952;SDS011;12163;49.316;6.092;2022-09-09T13:08:44;5.85;;;1.20;;
23952;SDS011;12163;49.316;6.092;2022-09-09T13:11:13;6.25;;;1.17;;
23952;SDS011;12163;49.316;6.092;2022-09-09T13:13:43;4.47;;;0.98;;
23952;SDS011;12163;49.316;6.092;2022-09-09T13:21:34;5.22;;;1.15;;
23952;SDS011;12163;49.316;6.092;2022-09-09T13:24:06;6.07;;;1.00;;
23952;SDS011;12163;49.316;6.092;2022-09-09T13:26:54;6.25;;;1.10;;
23952;SDS011;12163;49.316;6.092;2022-09-09T13:29:26;5.20;;;1.10;;
23952;SDS011;12163;49.316;6.092;2022-09-09T13:31:53;7.45;;;1.33;;
23952;SDS011;12163;49.316;6.092;2022-09-09T13:34:28;5.57;;;1.35;;
23952;SDS011;12163;49.316;6.092;2022-09-09T13:36:59;10.10;;;1.50;;
23952;SDS011;12163;49.316;6.092;2022-09-09T13:39:35;6.35;;;1.60;;
23952;SDS011;12163;49.316;6.092;2022-09-09T13:42:03;9.85;;;1.50;;
23952;SDS011;12163;49.316;6.092;2022-09-09T13:44:31;5.30;;;1.42;;
23952;SDS011;12163;49.316;6.092;2022-09-09T13:49:49;6.40;;;1.35;;
23952;SDS011;12163;49.316;6.092;2022-09-09T13:52:16;7.80;;;1.40;;
23952;SDS011;12163;49.316;6.092;2022-09-09T13:54:48;4.43;;;1.38;;
23952;SDS011;12163;49.316;6.092;2022-09-09T13:57:23;7.43;;;1.50;;
23952;SDS011;12163;49.316;6.092;2022-09-09T13:59:52;5.43;;;1.50;;
23952;SDS011;12163;49.316;6.092;2022-09-09T14:02:36;9.50;;;1.40;;
23952;SDS011;12163;49.316;6.092;2022-09-09T14:05:05;6.13;;;1.50;;
23952;SDS011;12163;49.316;6.092;2022-09-09T14:07:31;5.20;;;1.30;;
23952;SDS011;12163;49.316;6.092;2022-09-09T14:09:58;9.13;;;1.77;;
23952;SDS011;12163;49.316;6.092;2022-09-09T14:12:26;8.63;;;1.45;;
23952;SDS011;12163;49.316;6.092;2022-09-09T14:14:53;4.75;;;1.17;;
23952;SDS011;12163;49.316;6.092;2022-09-09T14:17:19;4.00;;;1.20;;
23952;SDS011;12163;49.316;6.092;2022-09-09T14:19:46;5.55;;;1.30;;
23952;SDS011;12163;49.316;6.092;2022-09-09T14:22:12;8.32;;;1.23;;
23952;SDS011;12163;49.316;6.092;2022-09-09T14:24:39;4.07;;;1.02;;
23952;SDS011;12163;49.316;6.092;2022-09-09T14:27:07;5.03;;;1.40;;
23952;SDS011;12163;49.316;6.092;2022-09-09T14:29:33;5.90;;;1.10;;
23952;SDS011;12163;49.316;6.092;2022-09-09T14:32:00;8.63;;;1.30;;
23952;SDS011;12163;49.316;6.092;2022-09-09T14:34:27;7.70;;;1.48;;
23952;SDS011;12163;49.316;6.092;2022-09-09T14:36:54;2.08;;;0.80;;
23952;SDS011;12163;49.316;6.092;2022-09-09T14:39:20;4.03;;;1.13;;
23952;SDS011;12163;49.316;6.092;2022-09-09T14:41:47;5.63;;;1.25;;
23952;SDS011;12163;49.316;6.092;2022-09-09T14:44:13;4.00;;;1.00;;
23952;SDS011;12163;49.316;6.092;2022-09-09T14:46:41;4.82;;;1.27;;
23952;SDS011;12163;49.316;6.092;2022-09-09T14:49:09;10.18;;;1.58;;
23952;SDS011;12163;49.316;6.092;2022-09-09T14:51:36;7.13;;;1.27;;
23952;SDS011;12163;49.316;6.092;2022-09-09T14:54:03;7.63;;;1.30;;
23952;SDS011;12163;49.316;6.092;2022-09-09T14:56:30;4.45;;;1.17;;
23952;SDS011;12163;49.316;6.092;2022-09-09T14:59:00;7.00;;;1.45;;
23952;SDS011;12163;49.316;6.092;2022-09-09T15:01:28;6.38;;;1.27;;
23952;SDS011;12163;49.316;6.092;2022-09-09T15:03:57;6.88;;;1.35;;
23952;SDS011;12163;49.316;6.092;2022-09-09T15:06:26;5.07;;;1.15;;
23952;SDS011;12163;49.316;6.092;2022-09-09T15:08:55;4.47;;;1.30;;
23952;SDS011;12163;49.316;6.092;2022-09-09T15:11:26;4.03;;;1.10;;
23952;SDS011;12163;49.316;6.092;2022-09-09T15:13:54;3.17;;;1.00;;
23952;SDS011;12163;49.316;6.092;2022-09-09T15:16:21;5.95;;;1.40;;
23952;SDS011;12163;49.316;6.092;2022-09-09T15:18:51;5.43;;;1.65;;
23952;SDS011;12163;49.316;6.092;2022-09-09T15:21:21;3.65;;;1.02;;
23952;SDS011;12163;49.316;6.092;2022-09-09T15:23:51;3.13;;;1.10;;
23952;SDS011;12163;49.316;6.092;2022-09-09T15:26:18;4.25;;;1.02;;
23952;SDS011;12163;49.316;6.092;2022-09-09T15:28:47;2.90;;;0.95;;
23952;SDS011;12163;49.316;6.092;2022-09-09T15:31:22;7.32;;;1.40;;
23952;SDS011;12163;49.316;6.092;2022-09-09T15:33:51;6.15;;;1.35;;
23952;SDS011;12163;49.316;6.092;2022-09-09T15:36:21;4.57;;;1.10;;
23952;SDS011;12163;49.316;6.092;2022-09-09T15:38:49;5.40;;;1.20;;
23952;SDS011;12163;49.316;6.092;2022-09-09T15:41:18;5.97;;;1.10;;
23952;SDS011;12163;49.316;6.092;2022-09-09T15:43:46;3.83;;;1.23;;
23952;SDS011;12163;49.316;6.092;2022-09-09T15:48:55;7.30;;;1.17;;
23952;SDS011;12163;49.316;6.092;2022-09-09T15:51:29;5.28;;;1.15;;
23952;SDS011;12163;49.316;6.092;2022-09-09T15:54:08;6.63;;;1.30;;
23952;SDS011;12163;49.316;6.092;2022-09-09T15:56:40;6.40;;;1.45;;
23952;SDS011;12163;49.316;6.092;2022-09-09T15:59:06;6.82;;;1.00;;
23952;SDS011;12163;49.316;6.092;2022-09-09T16:01:33;5.97;;;1.25;;
23952;SDS011;12163;49.316;6.092;2022-09-09T16:04:00;3.53;;;1.00;;
23952;SDS011;12163;49.316;6.092;2022-09-09T16:06:28;3.85;;;1.10;;
23952;SDS011;12163;49.316;6.092;2022-09-09T16:08:56;8.65;;;1.10;;
23952;SDS011;12163;49.316;6.092;2022-09-09T16:11:28;6.68;;;1.48;;
23952;SDS011;12163;49.316;6.092;2022-09-09T16:13:57;3.53;;;1.10;;
23952;SDS011;12163;49.316;6.092;2022-09-09T16:16:25;6.35;;;1.02;;
23952;SDS011;12163;49.316;6.092;2022-09-09T16:19:01;4.60;;;1.02;;
23952;SDS011;12163;49.316;6.092;2022-09-09T16:21:32;4.70;;;1.05;;
23952;SDS011;12163;49.316;6.092;2022-09-09T16:24:04;7.45;;;1.20;;
23952;SDS011;12163;49.316;6.092;2022-09-09T16:26:32;3.28;;;0.80;;
23952;SDS011;12163;49.316;6.092;2022-09-09T16:29:01;4.05;;;0.80;;
23952;SDS011;12163;49.316;6.092;2022-09-09T16:31:29;2.50;;;0.63;;
23952;SDS011;12163;49.316;6.092;2022-09-09T16:33:58;6.60;;;0.68;;
23952;SDS011;12163;49.316;6.092;2022-09-09T16:36:26;5.30;;;0.70;;
23952;SDS011;12163;49.316;6.092;2022-09-09T16:38:54;3.70;;;0.70;;
23952;SDS011;12163;49.316;6.092;2022-09-09T16:41:23;1.50;;;0.40;;
23952;SDS011;12163;49.316;6.092;2022-09-09T16:43:55;4.85;;;0.65;;
23952;SDS011;12163;49.316;6.092;2022-09-09T16:46:23;3.33;;;0.63;;
23952;SDS011;12163;49.316;6.092;2022-09-09T16:48:51;2.47;;;0.70;;
23952;SDS011;12163;49.316;6.092;2022-09-09T16:51:25;7.85;;;0.88;;
23952;SDS011;12163;49.316;6.092;2022-09-09T16:53:58;3.95;;;0.95;;
23952;SDS011;12163;49.316;6.092;2022-09-09T16:56:27;4.07;;;0.90;;
23952;SDS011;12163;49.316;6.092;2022-09-09T16:58:56;5.65;;;1.50;;
23952;SDS011;12163;49.316;6.092;2022-09-09T17:01:25;5.28;;;1.17;;
23952;SDS011;12163;49.316;6.092;2022-09-09T17:03:58;3.17;;;0.82;;
23952;SDS011;12163;49.316;6.092;2022-09-09T17:06:30;5.43;;;1.23;;
23952;SDS011;12163;49.316;6.092;2022-09-09T17:09:01;5.05;;;1.20;;
23952;SDS011;12163;49.316;6.092;2022-09-09T17:11:30;6.32;;;1.35;;
23952;SDS011;12163;49.316;6.092;2022-09-09T17:13:57;9.07;;;1.15;;
23952;SDS011;12163;49.316;6.092;2022-09-09T17:16:28;5.65;;;1.35;;
23952;SDS011;12163;49.316;6.092;2022-09-09T17:18:57;6.43;;;0.80;;
23952;SDS011;12163;49.316;6.092;2022-09-09T17:21:25;11.23;;;1.90;;
23952;SDS011;12163;49.316;6.092;2022-09-09T17:23:53;3.38;;;0.80;;
23952;SDS011;12163;49.316;6.092;2022-09-09T17:26:21;8.48;;;1.38;;
23952;SDS011;12163;49.316;6.092;2022-09-09T17:28:50;6.53;;;1.35;;
23952;SDS011;12163;49.316;6.092;2022-09-09T17:31:24;7.40;;;1.30;;
23952;SDS011;12163;49.316;6.092;2022-09-09T17:33:52;6.30;;;1.40;;
23952;SDS011;12163;49.316;6.092;2022-09-09T17:36:20;5.75;;;1.25;;
23952;SDS011;12163;49.316;6.092;2022-09-09T17:38:49;5.90;;;1.42;;
23952;SDS011;12163;49.316;6.092;2022-09-09T17:41:21;6.20;;;1.38;;
23952;SDS011;12163;49.316;6.092;2022-09-09T17:43:50;7.10;;;1.25;;